Time;durP1;ratioP1;P1;durP2;ratioP2;P2;SDS_P1;SDS_P2;PMS_P1;PMS_P2;Temp;Humidity;BMP_temperature;BMP_pressure;BME280_temperature;BME280_humidity;BME280_pressure;Samples;Min_cycle;Max_cycle;Signal;HPM_P1;HPM_P2
2022/10/03 00:00:26;;;;;;;0.38;0.30;;;;;;;17.53;52.81;93698.13;5029527;28;20056;-88
2022/10/03 00:03:33;;;;;;;0.32;0.30;;;;;;;17.51;53.13;93697.88;5025155;28;20062;-88
2022/10/03 00:06:21;;;;;;;0.60;0.45;;;;;;;17.51;52.82;93706.84;5035903;28;20098;-87
2022/10/03 00:09:10;;;;;;;0.47;0.43;;;;;;;17.51;52.87;93711.56;5023633;28;20041;-87
2022/10/03 00:11:42;;;;;;;1.27;0.30;;;;;;;17.50;52.95;93702.63;5045248;28;20065;-86
2022/10/03 00:14:26;;;;;;;0.68;0.50;;;;;;;17.51;53.14;93717.03;5040462;28;20064;-87
2022/10/03 00:16:58;;;;;;;0.30;0.30;;;;;;;17.53;53.07;93707.09;5042454;28;20183;-88
2022/10/03 00:19:35;;;;;;;0.40;0.30;;;;;;;17.53;52.65;93720.00;5043025;28;20040;-88
2022/10/03 00:22:25;;;;;;;0.40;0.30;;;;;;;17.49;53.17;93728.44;5029612;28;20124;-88
2022/10/03 00:25:01;;;;;;;0.65;0.52;;;;;;;17.51;52.90;93717.03;5046608;28;20048;-88
2022/10/03 00:27:33;;;;;;;0.30;0.30;;;;;;;17.51;53.35;93720.50;5012764;28;20036;-87
2022/10/03 00:30:14;;;;;;;0.30;0.30;;;;;;;17.50;52.85;93727.22;5029708;28;20075;-87
2022/10/03 00:32:54;;;;;;;0.30;0.30;;;;;;;17.51;53.14;93725.22;5046900;28;20048;-87
2022/10/03 00:35:48;;;;;;;0.35;0.35;;;;;;;17.53;52.74;93733.66;5046757;28;20051;-87
2022/10/03 00:38:28;;;;;;;0.35;0.25;;;;;;;17.52;53.03;93726.72;5054731;28;20518;-87
2022/10/03 00:41:00;;;;;;;0.40;0.40;;;;;;;17.51;53.20;93731.44;5047270;28;20068;-88
2022/10/03 00:43:36;;;;;;;0.30;0.30;;;;;;;17.50;53.11;93729.19;5028505;28;20041;-88
2022/10/03 00:46:16;;;;;;;0.30;0.30;;;;;;;17.49;53.06;93736.66;5029405;28;20075;-87
2022/10/03 00:49:06;;;;;;;0.73;0.40;;;;;;;17.51;53.30;93736.16;5030681;28;20107;-86
2022/10/03 00:51:53;;;;;;;0.70;0.50;;;;;;;17.48;52.72;93730.44;5027987;28;20487;-86
2022/10/03 00:54:33;;;;;;;0.40;0.40;;;;;;;17.48;52.85;93733.16;5012342;28;20052;-87
2022/10/03 00:57:33;;;;;;;0.70;0.40;;;;;;;17.48;53.03;93729.69;5047260;28;20196;-88
2022/10/03 01:00:03;;;;;;;0.35;0.30;;;;;;;17.50;53.12;93731.94;5043799;28;20492;-87
2022/10/03 01:02:38;;;;;;;0.38;0.32;;;;;;;17.50;52.82;93732.69;5053124;28;20558;-87
2022/10/03 01:05:19;;;;;;;0.32;0.30;;;;;;;17.51;52.67;93720.50;5066714;28;20090;-86
2022/10/03 01:08:01;;;;;;;0.30;0.30;;;;;;;17.50;53.22;93729.19;5054308;28;20056;-87
2022/10/03 01:10:35;;;;;;;0.30;0.30;;;;;;;17.50;52.98;93729.19;5046681;28;20109;-87
2022/10/03 01:13:34;;;;;;;0.35;0.30;;;;;;;17.50;52.85;93729.19;5029152;28;20056;-88
2022/10/03 01:16:18;;;;;;;0.47;0.40;;;;;;;17.54;53.08;93732.44;5045336;28;20528;-87
2022/10/03 01:18:56;;;;;;;0.57;0.45;;;;;;;17.50;52.87;93732.69;5060283;28;20051;-87
2022/10/03 01:21:42;;;;;;;0.57;0.50;;;;;;;17.50;52.94;93740.88;5025229;28;20060;-88
2022/10/03 01:24:32;;;;;;;0.52;0.43;;;;;;;17.52;52.74;93737.66;5041653;28;20038;-87
2022/10/03 01:27:04;;;;;;;1.02;0.40;;;;;;;17.51;53.02;93739.63;5043409;28;20041;-87
2022/10/03 01:32:47;;;;;;;0.28;0.28;;;;;;;17.50;53.07;93743.63;5045115;28;20044;-88
2022/10/03 01:35:23;;;;;;;0.20;0.20;;;;;;;17.48;52.83;93748.81;5049295;28;20048;-89
2022/10/03 01:38:08;;;;;;;0.20;0.20;;;;;;;17.47;53.22;93750.81;5058863;28;20025;-86
2022/10/03 01:40:35;;;;;;;0.40;0.40;;;;;;;17.47;52.80;93753.53;5057770;28;20037;-87
2022/10/03 01:43:06;;;;;;;0.55;0.40;;;;;;;17.47;53.12;93748.06;5050328;28;20083;-88
2022/10/03 01:45:45;;;;;;;0.40;0.40;;;;;;;17.47;52.88;93753.53;5050160;28;20033;-88
2022/10/03 01:48:30;;;;;;;0.90;0.40;;;;;;;17.48;53.15;93749.56;5048706;28;20037;-86
2022/10/03 01:51:15;;;;;;;0.30;0.30;;;;;;;17.49;52.99;93755.78;5050276;28;20095;-88
2022/10/03 01:54:15;;;;;;;0.40;0.40;;;;;;;17.48;52.92;93762.50;5015413;28;20511;-88
2022/10/03 01:56:43;;;;;;;0.38;0.38;;;;;;;17.47;53.20;93763.72;5049129;28;20120;-88
2022/10/03 01:59:12;;;;;;;0.28;0.28;;;;;;;17.47;52.82;93763.72;5029419;28;20160;-87
2022/10/03 02:01:47;;;;;;;0.38;0.38;;;;;;;17.48;53.11;93770.69;5045388;28;20376;-88
2022/10/03 02:04:30;;;;;;;0.40;0.40;;;;;;;17.47;52.86;93780.88;5017475;28;20716;-87
2022/10/03 02:06:57;;;;;;;0.88;0.43;;;;;;;17.51;53.09;93780.63;5033344;28;20083;-87
2022/10/03 02:09:47;;;;;;;0.47;0.40;;;;;;;17.48;52.81;93785.09;5048870;28;20049;-87
2022/10/03 02:12:14;;;;;;;2.05;0.45;;;;;;;17.51;52.62;93793.56;5034422;28;20036;-88
2022/10/03 02:15:00;;;;;;;0.47;0.47;;;;;;;17.48;53.19;93784.34;5031827;28;20099;-87
2022/10/03 02:17:29;;;;;;;0.47;0.43;;;;;;;17.47;52.72;93791.06;5051752;28;20064;-87
2022/10/03 02:20:06;;;;;;;0.60;0.40;;;;;;;17.48;52.70;93787.09;5052089;28;20039;-88
2022/10/03 02:22:41;;;;;;;0.30;0.30;;;;;;;17.51;52.44;93786.09;5015401;28;20037;-88
2022/10/03 02:25:30;;;;;;;0.43;0.30;;;;;;;17.50;52.62;93778.41;5015379;28;20463;-87
2022/10/03 02:28:07;;;;;;;1.00;0.60;;;;;;;17.48;52.58;93785.09;5026054;28;20514;-87
2022/10/03 02:30:46;;;;;;;0.30;0.30;;;;;;;17.50;52.75;93781.13;5048571;28;20040;-86
2022/10/03 02:33:43;;;;;;;0.55;0.47;;;;;;;17.47;52.64;93782.88;5031226;28;20065;-88
2022/10/03 02:37:04;;;;;;;0.40;0.40;;;;;;;17.47;52.78;93788.31;5034011;28;20056;-87
2022/10/03 02:39:53;;;;;;;0.63;0.50;;;;;;;17.47;52.92;93797.28;4921405;29;20047;-87
2022/10/03 02:42:51;;;;;;;0.40;0.40;;;;;;;17.47;53.05;93800.00;4948367;29;20047;-88
2022/10/03 02:45:28;;;;;;;0.63;0.63;;;;;;;17.45;52.73;93799.00;4930898;29;20087;-88
2022/10/03 02:48:12;;;;;;;0.38;0.32;;;;;;;17.44;53.25;93803.72;4948809;29;20051;-89
2022/10/03 02:51:02;;;;;;;0.40;0.35;;;;;;;17.43;53.13;93812.41;4948010;28;20122;-88
2022/10/03 02:53:48;;;;;;;0.43;0.43;;;;;;;17.45;52.78;93807.22;4939359;28;20054;-88
2022/10/03 02:56:50;;;;;;;0.30;0.22;;;;;;;17.44;53.08;93809.19;4932588;29;20082;-87
2022/10/03 02:59:46;;;;;;;0.25;0.25;;;;;;;17.44;52.95;93819.38;4935461;29;20507;-87
2022/10/03 03:02:29;;;;;;;0.60;0.50;;;;;;;17.44;52.72;93813.91;4931575;29;20051;-86
2022/10/03 03:05:19;;;;;;;1.23;0.50;;;;;;;17.44;52.81;93827.56;4948043;29;20054;-88
2022/10/03 03:08:02;;;;;;;0.77;0.55;;;;;;;17.46;52.63;93823.13;4927602;29;20043;-87
2022/10/03 03:11:02;;;;;;;0.38;0.38;;;;;;;17.45;52.96;93821.63;4914183;29;20062;-88
2022/10/03 03:13:48;;;;;;;0.30;0.30;;;;;;;17.45;52.74;93823.59;4914605;29;20074;-87
2022/10/03 03:16:35;;;;;;;0.68;0.52;;;;;;;17.44;52.96;93828.31;5006779;28;20045;-87
2022/10/03 03:19:30;;;;;;;0.50;0.40;;;;;;;17.44;52.71;93824.84;5011535;28;20084;-87
2022/10/03 03:22:16;;;;;;;0.52;0.40;;;;;;;17.42;52.66;93824.59;5028599;28;20038;-88
2022/10/03 03:24:55;;;;;;;0.47;0.38;;;;;;;17.43;53.07;93837.75;5013525;28;20029;-88
2022/10/03 03:27:32;;;;;;;0.52;0.52;;;;;;;17.42;53.19;93833.53;5009569;28;20126;-86
2022/10/03 03:30:02;;;;;;;0.43;0.40;;;;;;;17.43;52.92;93837.00;5027539;28;20042;-86
2022/10/03 03:32:49;;;;;;;0.40;0.40;;;;;;;17.43;52.75;93850.69;5026205;28;20037;-87
2022/10/03 03:35:20;;;;;;;0.63;0.40;;;;;;;17.43;52.85;93847.94;5027468;28;20124;-88
2022/10/03 03:38:09;;;;;;;1.00;0.40;;;;;;;17.43;53.05;93845.22;5028707;28;20056;-87
2022/10/03 03:40:41;;;;;;;0.45;0.40;;;;;;;17.44;52.92;93854.91;5006432;28;20041;-87
2022/10/03 03:43:45;;;;;;;1.95;0.65;;;;;;;17.43;53.15;93850.69;5000971;28;20115;-88
2022/10/03 03:46:33;;;;;;;0.47;0.35;;;;;;;17.45;52.73;93851.69;5028628;28;20045;-86
2022/10/03 03:49:02;;;;;;;0.50;0.40;;;;;;;17.47;52.85;93853.94;5013854;28;20041;-90
2022/10/03 03:51:42;;;;;;;3.13;0.50;;;;;;;17.47;53.23;93848.47;5011038;28;20121;-85
2022/10/03 03:54:18;;;;;;;0.40;0.38;;;;;;;17.49;52.70;93843.25;4994104;28;20124;-87
2022/10/03 03:57:20;;;;;;;0.68;0.57;;;;;;;17.50;52.62;93857.66;5011416;28;20029;-86
2022/10/03 04:00:04;;;;;;;0.30;0.30;;;;;;;17.48;52.79;93850.69;5040128;28;20045;-88
2022/10/03 04:02:44;;;;;;;0.50;0.50;;;;;;;17.50;52.98;93852.94;5044070;28;20337;-86
2022/10/03 04:05:14;;;;;;;0.60;0.45;;;;;;;17.47;53.00;93849.22;5047555;28;20040;-87
2022/10/03 04:07:48;;;;;;;0.80;0.60;;;;;;;17.47;52.79;93843.00;5047779;28;20041;-87
2022/10/03 04:10:26;;;;;;;0.52;0.40;;;;;;;17.47;53.02;93851.19;5046435;28;20037;-88
2022/10/03 04:13:05;;;;;;;0.30;0.30;;;;;;;17.49;52.99;93859.66;5047208;28;20124;-90
2022/10/03 04:15:36;;;;;;;0.55;0.55;;;;;;;17.48;52.83;93869.09;5030635;28;20066;-89
2022/10/03 04:21:19;;;;;;;1.27;0.60;;;;;;;17.44;52.75;93863.84;5054047;28;20621;-90
2022/10/03 04:23:57;;;;;;;4.07;1.25;;;;;;;17.41;51.99;93862.09;5029457;28;20131;-89
2022/10/03 04:26:50;;;;;;;9.55;7.50;;;;;;;17.37;51.59;93869.03;5046519;28;20052;-86
2022/10/03 04:29:52;;;;;;;21.33;9.13;;;;;;;17.31;51.79;93869.03;5027308;28;20499;-90
2022/10/03 04:32:44;;;;;;;18.92;7.40;;;;;;;17.33;51.73;93868.53;4971372;28;20046;-89
2022/10/03 04:35:30;;;;;;;156.55;135.50;;;;;;;17.27;51.45;93862.31;4979352;28;20042;-88
2022/10/03 04:38:21;;;;;;;81.57;46.75;;;;;;;17.24;51.81;93872.25;4986702;28;20043;-88
2022/10/03 04:40:49;;;;;;;59.22;25.35;;;;;;;17.27;52.19;93874.00;4986797;28;20073;-87
2022/10/03 04:43:17;;;;;;;80.28;49.05;;;;;;;17.29;52.23;93870.78;4982436;28;20089;-87
2022/10/03 04:45:59;;;;;;;69.15;37.50;;;;;;;17.32;52.01;93872.53;4984546;28;20038;-87
2022/10/03 04:48:37;;;;;;;51.20;27.50;;;;;;;17.35;51.44;93868.78;4968783;28;20101;-86
2022/10/03 04:51:28;;;;;;;38.22;17.42;;;;;;;17.39;52.42;93875.50;4988951;28;20050;-89
2022/10/03 04:54:03;;;;;;;34.17;15.32;;;;;;;17.39;51.48;93869.28;4976932;28;20042;-89
2022/10/03 04:56:50;;;;;;;24.80;12.20;;;;;;;17.38;51.95;93865.81;4976537;28;20050;-89
2022/10/03 04:59:18;;;;;;;23.35;10.60;;;;;;;17.40;52.06;93871.53;4955144;28;20555;-90
2022/10/03 05:01:49;;;;;;;50.53;17.05;;;;;;;17.41;51.97;93880.47;4991140;28;20541;-85
2022/10/03 05:04:28;;;;;;;32.15;13.38;;;;;;;17.42;51.75;93879.25;4985264;28;20042;-90
2022/10/03 05:07:06;;;;;;;53.17;20.27;;;;;;;17.43;51.76;93884.22;4991462;28;20082;-89
2022/10/03 05:09:55;;;;;;;52.00;21.85;;;;;;;17.41;51.88;93875.78;5041799;28;20127;-90
2022/10/03 05:12:36;;;;;;;53.17;24.52;;;;;;;17.43;52.73;93888.94;5052107;28;20055;-88
2022/10/03 05:15:11;;;;;;;59.92;32.35;;;;;;;17.44;51.92;93902.13;5052362;28;20037;-92
2022/10/03 05:18:10;;;;;;;75.10;41.30;;;;;;;17.44;52.08;93885.72;5048058;28;20037;-90
2022/10/03 05:20:38;;;;;;;111.50;59.47;;;;;;;17.43;52.13;93892.41;5033666;28;20041;-90
2022/10/03 05:23:28;;;;;;;122.72;69.30;;;;;;;17.46;52.30;93891.44;5051933;28;20084;-89
2022/10/03 05:26:05;;;;;;;115.30;60.00;;;;;;;17.43;52.19;93886.22;5037114;28;20037;-90
2022/10/03 05:28:43;;;;;;;137.63;78.68;;;;;;;17.44;52.20;93898.63;5044652;28;20091;-89
2022/10/03 05:31:32;;;;;;;162.10;91.32;;;;;;;17.47;52.00;93892.94;5015577;28;20037;-91
2022/10/03 05:34:00;;;;;;;133.48;76.38;;;;;;;17.45;52.27;93900.13;5049689;28;20372;-88
2022/10/03 05:36:42;;;;;;;195.23;116.10;;;;;;;17.46;52.25;93902.38;5045380;28;20550;-86
2022/10/03 05:39:41;;;;;;;159.15;92.93;;;;;;;17.47;52.03;93908.59;5048089;28;20527;-87
2022/10/03 05:42:33;;;;;;;202.07;117.43;;;;;;;17.50;52.17;93913.06;5050761;28;20048;-90
2022/10/03 05:45:01;;;;;;;221.57;119.10;;;;;;;17.51;52.14;93911.09;5044824;28;20114;-90
2022/10/03 05:47:44;;;;;;;200.75;116.20;;;;;;;17.51;52.16;93913.81;5010993;28;20124;-88
2022/10/03 05:50:28;;;;;;;209.88;116.45;;;;;;;17.48;52.13;93910.09;5037988;28;20483;-90
2022/10/03 05:53:01;;;;;;;211.32;116.32;;;;;;;17.52;51.92;93902.41;5051800;28;20066;-91
2022/10/03 05:55:34;;;;;;;225.20;125.35;;;;;;;17.52;52.20;93918.06;5050335;28;20079;-88
2022/10/03 05:58:22;;;;;;;213.55;122.20;;;;;;;17.52;52.19;93918.06;5050530;28;20056;-87
2022/10/03 06:00:49;;;;;;;207.02;120.45;;;;;;;17.53;51.82;93930.47;5013717;28;20106;-88
2022/10/03 06:03:23;;;;;;;234.15;129.13;;;;;;;17.53;52.07;93933.97;5033046;28;20040;-88
2022/10/03 06:05:59;;;;;;;223.07;123.88;;;;;;;17.56;51.75;93935.69;5052706;28;20044;-86
2022/10/03 06:08:40;;;;;;;212.80;125.78;;;;;;;17.61;52.30;93940.44;5034388;28;20037;-90
2022/10/03 06:11:06;;;;;;;;;;;;;;;17.61;52.30;93929.50;5054787;28;20040;-89
2022/10/03 06:14:06;;;;;;;211.60;122.65;;;;;;;17.61;52.13;93939.69;5047956;28;19921;-89
2022/10/03 06:16:59;;;;;;;204.77;118.53;;;;;;;17.65;52.10;93940.22;5031769;28;20037;-91
2022/10/03 06:19:48;;;;;;;208.38;121.90;;;;;;;17.67;52.10;93949.44;5044942;28;20148;-90
2022/10/03 06:22:47;;;;;;;192.90;116.15;;;;;;;17.69;52.02;93946.22;5029704;28;20076;-88
2022/10/03 06:25:21;;;;;;;186.95;118.35;;;;;;;17.68;52.11;93942.72;5021540;28;20099;-89
2022/10/03 06:28:27;;;;;;;189.38;113.63;;;;;;;17.69;51.77;93949.69;5037491;28;20037;-87
2022/10/03 06:31:10;;;;;;;180.93;104.55;;;;;;;17.65;51.91;93953.91;5017746;28;20045;-88
2022/10/03 06:33:56;;;;;;;180.43;107.05;;;;;;;17.66;52.05;93950.66;5044159;28;20036;-87
2022/10/03 06:36:28;;;;;;;192.90;110.80;;;;;;;17.66;51.96;93955.38;5056660;28;20527;-87
2022/10/03 06:39:31;;;;;;;159.57;97.10;;;;;;;17.66;52.07;93947.19;5058225;28;20048;-88
2022/10/03 06:42:15;;;;;;;168.27;100.30;;;;;;;17.68;51.89;93955.66;5044637;28;20037;-88
2022/10/03 06:45:08;;;;;;;142.38;82.45;;;;;;;17.63;51.72;93954.34;5055647;28;20037;-90
2022/10/03 06:47:59;;;;;;;145.05;83.20;;;;;;;17.61;51.88;93967.78;5054066;28;20037;-88
2022/10/03 06:50:27;;;;;;;174.40;94.63;;;;;;;17.62;51.65;93963.78;5049822;28;20046;-88
2022/10/03 06:53:20;;;;;;;158.05;95.05;;;;;;;17.61;51.74;93958.81;5047734;28;20566;-90
2022/10/03 06:56:04;;;;;;;172.57;99.07;;;;;;;17.61;51.95;93953.34;5048689;28;20067;-90
2022/10/03 06:58:37;;;;;;;173.93;96.35;;;;;;;17.66;51.76;93961.59;5039486;28;20068;-90
2022/10/03 07:01:32;;;;;;;183.98;99.10;;;;;;;17.64;52.00;93963.31;5035109;28;20040;-91
2022/10/03 07:04:33;;;;;;;160.43;95.53;;;;;;;17.61;51.97;93958.81;5028316;28;20040;-91
2022/10/03 07:07:18;;;;;;;167.43;92.95;;;;;;;17.64;52.17;93966.03;5023856;28;20259;-90
2022/10/03 07:09:52;;;;;;;196.90;96.40;;;;;;;17.66;51.88;93969.06;5066990;28;20037;-88
2022/10/03 07:12:46;;;;;;;181.60;96.35;;;;;;;17.63;51.96;93970.75;5062404;28;20041;-90
2022/10/03 07:15:28;;;;;;;180.20;95.75;;;;;;;17.64;52.13;93966.03;5041591;28;20398;-89
2022/10/03 07:18:07;;;;;;;186.48;97.53;;;;;;;17.64;51.95;93968.78;5040053;28;20070;-90
2022/10/03 07:20:52;;;;;;;176.32;99.75;;;;;;;17.64;52.07;93979.72;5021369;28;20044;-88
2022/10/03 07:23:52;;;;;;;168.80;95.20;;;;;;;17.63;52.01;93980.94;5054908;28;20044;-88
2022/10/03 07:26:39;;;;;;;229.50;135.95;;;;;;;17.65;52.06;93986.72;5044015;28;20029;-89
2022/10/03 07:29:05;;;;;;;215.73;117.28;;;;;;;17.65;52.24;93998.38;5042678;28;20041;-88
2022/10/03 07:31:53;;;;;;;218.43;118.78;;;;;;;17.63;52.14;93994.63;5049135;28;20056;-89
2022/10/03 07:34:56;;;;;;;225.27;132.15;;;;;;;17.65;52.14;93992.91;5015850;28;20112;-91
2022/10/03 07:40:55;;;;;;;250.85;146.23;;;;;;;17.67;51.75;94004.13;5060982;28;20086;-90
2022/10/03 07:43:43;;;;;;;219.18;124.85;;;;;;;17.61;51.50;94006.03;5040513;28;20479;-91
2022/10/03 07:46:24;;;;;;;219.52;124.60;;;;;;;17.64;51.90;94018.75;5052315;28;20040;-91
2022/10/03 07:49:13;;;;;;;229.90;130.98;;;;;;;17.64;51.80;94021.50;5032983;28;20426;-88
2022/10/03 07:51:43;;;;;;;243.23;133.52;;;;;;;17.67;51.76;94019.78;5025753;28;20052;-88
2022/10/03 07:54:24;;;;;;;239.23;132.18;;;;;;;17.66;52.03;94021.75;5044452;28;20042;-89
2022/10/03 07:56:54;;;;;;;247.50;136.07;;;;;;;17.66;52.26;94021.75;5052030;28;20087;-89
2022/10/03 07:59:22;;;;;;;235.13;136.45;;;;;;;17.68;52.08;94022.00;5038615;28;20041;-88
2022/10/03 08:02:12;;;;;;;227.18;140.85;;;;;;;17.69;52.29;94014.56;5049271;28;20044;-90
2022/10/03 08:05:00;;;;;;;253.43;155.02;;;;;;;17.67;52.32;94017.03;5037680;28;20041;-88
2022/10/03 08:07:38;;;;;;;313.83;207.98;;;;;;;17.65;52.25;94025.72;5024155;28;20096;-88
2022/10/03 08:10:08;;;;;;;290.85;186.05;;;;;;;17.69;52.01;94011.81;5067819;28;20128;-91
2022/10/03 08:12:59;;;;;;;316.90;195.02;;;;;;;17.68;51.78;94027.50;5051562;28;20110;-90
2022/10/03 08:15:58;;;;;;;336.02;224.32;;;;;;;17.67;51.35;94014.31;5039931;28;20129;-88
2022/10/03 08:19:05;;;;;;;266.70;173.20;;;;;;;17.61;51.14;94018.97;5068018;28;20079;-88
2022/10/03 08:21:38;;;;;;;267.08;171.23;;;;;;;17.62;51.22;94023.19;4998084;28;20046;-89
2022/10/03 08:24:30;;;;;;;263.60;151.73;;;;;;;17.62;51.05;94026.69;4990393;28;20060;-87
2022/10/03 08:27:15;;;;;;;242.07;134.60;;;;;;;17.56;50.93;94025.16;5000933;28;20068;-89
2022/10/03 08:29:50;;;;;;;219.82;122.25;;;;;;;17.50;50.82;94027.13;4996361;28;20386;-90
2022/10/03 08:32:31;;;;;;;220.73;118.97;;;;;;;17.52;50.66;94021.91;4976344;28;20060;-88
2022/10/03 08:34:59;;;;;;;;;;;;;;;17.52;50.60;94035.59;4972547;28;20132;-88
2022/10/03 08:37:49;;;;;;;198.23;102.20;;;;;;;17.47;50.74;94032.34;4991238;28;19940;-90
2022/10/03 08:40:39;;;;;;;170.00;90.55;;;;;;;17.50;50.56;94038.06;4992703;28;20073;-90
2022/10/03 08:43:22;;;;;;;147.23;80.78;;;;;;;17.45;50.41;94028.59;4992231;28;20061;-89
2022/10/03 08:46:11;;;;;;;136.43;76.65;;;;;;;17.46;50.54;94047.25;5009692;28;20105;-88
2022/10/03 08:49:10;;;;;;;164.13;91.95;;;;;;;17.38;50.49;94054.38;4976667;28;20053;-86
2022/10/03 08:51:46;;;;;;;175.18;106.97;;;;;;;17.32;50.11;94039.22;4997631;28;20064;-87
2022/10/03 08:54:15;;;;;;;139.93;86.00;;;;;;;17.28;50.20;94039.44;5059648;28;20040;-89
2022/10/03 08:59:55;;;;;;;90.55;57.20;;;;;;;17.08;50.03;94032.13;5035675;28;20045;-90
2022/10/03 09:02:47;;;;;;;120.47;64.88;;;;;;;17.07;49.77;94033.34;5024080;28;20082;-90
2022/10/03 09:05:37;;;;;;;150.43;99.07;;;;;;;17.09;49.65;94028.16;5055483;28;20423;-88
2022/10/03 09:11:36;;;;;;;168.90;113.68;;;;;;;17.01;49.69;94034.53;5064019;28;20044;-88
2022/10/03 09:14:47;;;;;;;178.40;104.88;;;;;;;17.06;49.99;94025.63;5067042;28;20097;-88
2022/10/03 09:17:41;;;;;;;185.68;106.72;;;;;;;17.05;49.84;94032.34;5051263;28;20098;-88
2022/10/03 09:20:26;;;;;;;146.98;85.10;;;;;;;16.96;49.79;94040.69;5068799;28;20045;-87
2022/10/03 09:23:01;;;;;;;150.65;85.45;;;;;;;16.97;50.25;94047.66;5038708;28;20048;-88
2022/10/03 09:25:34;;;;;;;109.72;54.92;;;;;;;16.82;49.99;94027.94;5037094;28;20029;-89
2022/10/03 09:28:17;;;;;;;84.20;46.08;;;;;;;16.78;49.86;94036.34;5047551;28;20041;-88
2022/10/03 09:31:02;;;;;;;75.60;39.90;;;;;;;16.76;48.96;94047.00;5063400;28;20045;-88
2022/10/03 09:33:50;;;;;;;68.57;34.30;;;;;;;16.71;49.74;94051.19;5066139;28;20060;-87
2022/10/03 09:36:50;;;;;;;69.93;32.35;;;;;;;16.62;48.91;94047.88;5031481;28;20052;-88
2022/10/03 09:39:54;;;;;;;92.78;35.33;;;;;;;16.68;48.71;94046.69;5046651;28;20044;-87
2022/10/03 09:42:32;;;;;;;85.78;41.63;;;;;;;16.63;48.71;94055.59;5032821;28;20134;-88
2022/10/03 09:45:13;;;;;;;75.05;36.20;;;;;;;16.61;48.50;94047.13;5041657;28;20080;-88
2022/10/03 09:48:16;;;;;;;58.13;30.63;;;;;;;16.62;48.51;94047.88;5062660;28;20052;-89
2022/10/03 09:51:12;;;;;;;94.88;50.97;;;;;;;16.53;48.19;94050.75;5067393;28;20063;-86
2022/10/03 09:54:07;;;;;;;66.35;38.17;;;;;;;16.59;48.10;94044.13;5045599;28;20073;-88
2022/10/03 09:56:52;;;;;;;75.28;39.88;;;;;;;16.54;48.79;94066.66;5050601;28;20088;-87
2022/10/03 09:59:20;;;;;;;118.03;56.00;;;;;;;16.49;48.29;94050.97;5072217;28;20136;-89
2022/10/03 10:02:00;;;;;;;113.90;54.92;;;;;;;16.53;48.21;94051.50;5064283;28;20067;-89
2022/10/03 10:04:34;;;;;;;161.32;87.75;;;;;;;16.59;48.44;94052.31;5048867;28;20040;-88
2022/10/03 10:07:18;;;;;;;122.50;63.90;;;;;;;16.65;48.26;94052.41;5062149;28;20045;-88
2022/10/03 10:10:18;;;;;;;100.72;51.47;;;;;;;16.64;48.13;94050.91;5059783;28;20041;-87
2022/10/03 10:13:01;;;;;;;73.82;40.95;;;;;;;16.56;48.74;94047.06;5067526;28;20048;-87
2022/10/03 10:15:42;;;;;;;60.90;34.53;;;;;;;16.61;48.33;94055.31;5085674;28;20510;-88
2022/10/03 10:18:35;;;;;;;48.22;28.02;;;;;;;16.62;48.77;94050.59;5059535;28;20044;-89
2022/10/03 10:21:14;;;;;;;46.70;26.85;;;;;;;16.58;48.71;94053.53;5065188;28;20050;-89
2022/10/03 10:23:58;;;;;;;49.13;25.17;;;;;;;16.60;48.60;94066.72;5070119;28;20040;-88
2022/10/03 10:26:52;;;;;;;41.50;26.88;;;;;;;16.63;48.79;94057.56;5094013;28;20058;-89
2022/10/03 10:29:29;;;;;;;39.97;24.13;;;;;;;16.65;48.71;94047.69;5061074;28;20041;-89
2022/10/03 10:32:30;;;;;;;35.83;21.52;;;;;;;16.66;48.47;94048.44;5080631;28;20032;-89
2022/10/03 10:35:33;;;;;;;37.25;20.88;;;;;;;16.68;48.29;94048.69;5021014;28;20048;-89
2022/10/03 10:38:11;;;;;;;31.95;20.85;;;;;;;16.63;48.57;94041.97;5068845;28;20106;-87
2022/10/03 10:40:41;;;;;;;28.58;18.65;;;;;;;16.68;48.39;94049.44;5083050;28;20150;-88
2022/10/03 10:43:15;;;;;;;27.40;18.20;;;;;;;16.67;48.66;94023.34;5067345;28;20041;-88
2022/10/03 10:46:15;;;;;;;26.95;16.75;;;;;;;16.67;48.59;94039.00;5069046;28;20041;-90
2022/10/03 10:49:06;;;;;;;21.50;13.95;;;;;;;16.71;48.24;94031.31;5068511;28;20045;-87
2022/10/03 10:51:40;;;;;;;19.67;12.85;;;;;;;16.68;48.71;94033.03;5070159;28;20571;-88
2022/10/03 10:54:37;;;;;;;38.67;20.23;;;;;;;16.77;48.49;94034.88;5070804;28;20109;-89
2022/10/03 10:57:14;;;;;;;33.67;15.80;;;;;;;16.76;48.17;94050.50;5055175;28;20052;-87
2022/10/03 11:00:17;;;;;;;23.00;12.45;;;;;;;16.73;48.22;94031.59;5069954;28;20069;-88
2022/10/03 11:02:45;;;;;;;28.80;15.18;;;;;;;16.68;47.89;94035.78;5064743;28;20048;-89
2022/10/03 11:05:41;;;;;;;84.45;53.25;;;;;;;16.72;48.26;94043.75;5051751;28;20572;-87
2022/10/03 11:08:37;;;;;;;88.43;57.33;;;;;;;16.69;48.20;94036.53;5070306;28;20043;-86
2022/10/03 11:11:41;;;;;;;59.45;37.72;;;;;;;16.71;47.83;94036.78;5066590;28;20045;-87
2022/10/03 11:14:26;;;;;;;54.30;33.40;;;;;;;16.71;48.11;94036.78;4990078;28;20571;-88
2022/10/03 11:17:25;;;;;;;34.40;23.70;;;;;;;16.68;47.79;94035.78;5028274;28;20046;-89
2022/10/03 11:20:28;;;;;;;30.80;20.40;;;;;;;16.67;48.23;94023.34;5006962;28;20050;-89
2022/10/03 11:23:12;;;;;;;44.75;30.00;;;;;;;16.66;48.42;94024.63;5017446;28;20069;-91
2022/10/03 11:26:12;;;;;;;86.40;54.97;;;;;;;16.71;47.99;94044.97;5012886;28;20062;-87
2022/10/03 11:28:53;;;;;;;63.17;37.13;;;;;;;16.67;48.15;94058.84;4961536;28;20061;-89
2022/10/03 11:31:38;;;;;;;53.75;33.08;;;;;;;16.66;48.57;94043.72;4979422;28;20051;-90
2022/10/03 11:34:33;;;;;;;58.90;41.78;;;;;;;16.68;47.80;94045.94;4990008;28;20177;-88
2022/10/03 11:37:16;;;;;;;65.63;34.38;;;;;;;16.71;48.06;94044.97;4979259;28;20039;-88
2022/10/03 11:40:05;;;;;;;84.50;39.38;;;;;;;16.68;47.69;94065.81;4996391;28;20046;-89
2022/10/03 11:42:55;;;;;;;85.80;39.08;;;;;;;16.68;47.78;94038.50;4968878;28;20117;-88
2022/10/03 11:45:41;;;;;;;93.22;39.95;;;;;;;16.67;47.81;94042.47;4975014;28;20030;-92
2022/10/03 11:48:08;;;;;;;105.13;56.42;;;;;;;16.62;47.55;94045.88;4987424;28;20570;-90
2022/10/03 11:50:43;;;;;;;107.97;54.58;;;;;;;16.69;47.79;94055.63;5057402;28;20036;-85
2022/10/03 11:53:11;;;;;;;85.70;47.03;;;;;;;16.63;47.56;94046.63;5049159;28;20048;-89
2022/10/03 11:55:40;;;;;;;89.30;45.13;;;;;;;16.67;47.68;94056.13;5052615;28;20048;-86
2022/10/03 11:58:43;;;;;;;70.47;39.83;;;;;;;16.70;47.54;94066.06;5067940;28;20036;-87
2022/10/03 12:01:24;;;;;;;83.88;40.97;;;;;;;16.74;47.23;94033.84;5068747;28;20581;-86
2022/10/03 12:04:13;;;;;;;130.48;73.55;;;;;;;16.72;47.33;94038.28;5051132;28;20055;-89
2022/10/03 12:10:02;;;;;;;180.02;97.43;;;;;;;16.69;47.31;94028.34;5063116;28;20043;-88
2022/10/03 12:12:38;;;;;;;129.75;77.18;;;;;;;16.67;47.71;94025.38;5041055;28;20024;-88
2022/10/03 12:15:37;;;;;;;131.13;66.60;;;;;;;16.66;48.00;94034.78;5035745;28;20076;-86
2022/10/03 12:18:04;;;;;;;104.90;56.55;;;;;;;16.68;47.35;94016.66;5044957;28;20037;-87
2022/10/03 12:20:59;;;;;;;91.78;53.10;;;;;;;16.68;47.47;94024.09;5045244;28;20040;-88
2022/10/03 12:23:41;;;;;;;89.18;50.88;;;;;;;16.70;48.04;94027.09;5043314;28;20048;-88
2022/10/03 12:26:07;;;;;;;98.30;55.53;;;;;;;16.63;47.51;94017.38;5066397;28;20047;-87
2022/10/03 12:28:38;;;;;;;73.65;41.00;;;;;;;16.63;47.99;94024.81;5070930;28;20048;-89
2022/10/03 12:31:12;;;;;;;89.72;52.50;;;;;;;16.58;47.60;94009.88;5043530;28;20044;-87
2022/10/03 12:34:10;;;;;;;73.05;43.63;;;;;;;16.65;48.02;94012.19;5034990;28;20044;-87
2022/10/03 12:36:47;;;;;;;89.93;55.75;;;;;;;16.71;47.93;94018.44;5066126;28;20178;-86
2022/10/03 12:39:36;;;;;;;105.63;58.53;;;;;;;16.74;47.95;94008.53;5066289;28;20032;-88
2022/10/03 12:42:23;;;;;;;93.70;55.83;;;;;;;16.81;47.72;94013.56;5054266;28;20106;-86
2022/10/03 12:45:11;;;;;;;86.00;52.83;;;;;;;16.87;47.74;94008.13;5061856;28;20040;-88
2022/10/03 12:47:58;;;;;;;97.00;57.10;;;;;;;16.91;47.46;94014.09;5050422;28;20047;-87
2022/10/03 12:50:55;;;;;;;85.15;52.35;;;;;;;16.96;47.63;94011.41;5067909;28;20040;-87
2022/10/03 12:53:24;;;;;;;86.80;53.90;;;;;;;17.00;47.34;94011.19;5054255;28;20408;-87